Haiku, Hawaii
Current Conditions -  °F | °C
As of 1:54 AM on Monday 20 Oct 2014 (Local Time) from PHOG Reporting Station
Clear Clear  
Wind Chill: 78°   Ceiling: Unl
Heat Index: 80°   Visibility: 10mi
Dew Point: 70°   Wind: 17mph
Humidity: 76%   Direction: 40°NE
Pressure: 29.96"   Gusts: NA
Location:  20.91°N, 156.32°W
Report Text: PHOG 201154Z AUTO 04015KT 10SM CLR 26/21 A2996 RMK AO2 SLP150 70004 T02560211 10261 20250 57027 TSNO $
Loading
Personal Weather Stations






























Interactive Weather Map
Tropical Storm Tracking
New forecast layout! Learn more

10-Day Weather Forecast

Advertisements
Track Severe Weather on mobile